Weather at Colonia Juarez Nuevo Airport

Public forecast

Using degrees Celsius for public forecast. Weather courtesy of forecast.io.

Closest aviation weather report (METAR) to Colonia Juarez Nuevo Airport

Report is more than 6 hours old.

Closest report is Nuevo Casas Grandes Municipal Airport, 12.7 nm (23.5 km) ENE. Retrieved 2017/11/28 14:01 UTC (5 years ago):

MMCG 281401Z RTD 00000KT 8SM SKC 20/18 A3004 RMK HZY MSGTX MMMD

Closest aviation forecast (TAF) to Colonia Juarez Nuevo Airport

Forecast is more than 12 hours old.

Closest forecast is Bisbee Douglas International Airport, 104.4 nm (193.4 km) NW. Retrieved 2021-06-01 00:33 UTC (1 year ago):

TAF KDUG 202331Z 2100/2124 12009KT P6SM SCT035 BKN060 TEMPO 2100/2102 6SM -SHRA BR BKN035 FM210300 09009KT 5SM -SHRA BR SCT015 OVC030 FM210700 VRB05KT 6SM SHRA BR FEW009 SCT014 OVC025 FM211500 VRB05KT P6SM SHRA SCT016 OVC030 FM212200 22009KT P6SM VCSH SCT027 BKN035